PRIVATE WETTERSTATION BILLIGHEIM-ALLFELD                       ZURCK
Wetterdaten: Mittwoch, 21.12.2016
Datum Zeit Temp. A. Temp. A. min Temp. A. max Feuchte A. Luftdruck Regen Wind Richtung Richtung Sonnenschein ET Solar Taupunkt Windchill Windben Empfang
21.12.2016 00:00 -2,9 C -2,9 C -2,9 C 92 % 1026,0 hPa 0,0 l/m 0,0 km/h (0 Bft) N 0 0 min 0,000 mm 0 W/m -4,0 C -2,9 C 0,0 km/h (0 Bft) 98 %
21.12.2016 00:10 -3,0 C -3,0 C -2,9 C 92 % 1025,9 hPa 0,0 l/m 0,0 km/h (0 Bft) N 0 0 min 0,000 mm 0 W/m -4,1 C -3,0 C 0,0 km/h (0 Bft) 98 %
21.12.2016 00:20 -3,0 C -3,1 C -3,0 C 92 % 1026,0 hPa 0,0 l/m 0,0 km/h (0 Bft) N 0 0 min 0,000 mm 0 W/m -4,1 C -3,0 C 0,0 km/h (0 Bft) 97 %
21.12.2016 00:30 -3,1 C -3,1 C -3,0 C 92 % 1025,9 hPa 0,0 l/m 0,0 km/h (0 Bft) N 0 0 min 0,000 mm 0 W/m -4,2 C -3,1 C 0,0 km/h (0 Bft) 97 %
21.12.2016 00:40 -3,1 C -3,2 C -3,1 C 92 % 1026,0 hPa 0,0 l/m 0,0 km/h (0 Bft) N 0 0 min 0,000 mm 0 W/m -4,2 C -3,1 C 0,0 km/h (0 Bft) 98 %
21.12.2016 00:50 -3,2 C -3,2 C -3,1 C 92 % 1025,9 hPa 0,0 l/m 0,0 km/h (0 Bft) N 0 0 min 0,000 mm 0 W/m -4,3 C -3,2 C 0,0 km/h (0 Bft) 97 %
21.12.2016 01:00 -3,2 C -3,2 C -3,2 C 92 % 1026,1 hPa 0,0 l/m 0,0 km/h (0 Bft) N 0 0 min 0,000 mm 0 W/m -4,3 C -3,2 C 0,0 km/h (0 Bft) 98 %
21.12.2016 01:10 -3,3 C -3,3 C -3,2 C 92 % 1026,0 hPa 0,0 l/m 0,0 km/h (0 Bft) N 0 0 min 0,000 mm 0 W/m -4,4 C -3,3 C 0,0 km/h (0 Bft) 97 %
21.12.2016 01:20 -3,4 C -3,4 C -3,3 C 92 % 1026,3 hPa 0,0 l/m 0,0 km/h (0 Bft) O-NO 67 0 min 0,000 mm 0 W/m -4,5 C -3,4 C 3,2 km/h (1 Bft) 97 %
21.12.2016 01:30 -3,6 C -3,6 C -3,5 C 92 % 1026,4 hPa 0,0 l/m 1,6 km/h (1 Bft) NO 45 0 min 0,000 mm 0 W/m -4,7 C -3,6 C 4,8 km/h (1 Bft) 98 %
21.12.2016 01:40 -3,7 C -3,7 C -3,6 C 92 % 1026,5 hPa 0,0 l/m 0,0 km/h (0 Bft) N 0 0 min 0,000 mm 0 W/m -4,8 C -3,7 C 0,0 km/h (0 Bft) 97 %
21.12.2016 01:50 -3,6 C -3,7 C -3,6 C 92 % 1026,7 hPa 0,0 l/m 0,0 km/h (0 Bft) N 0 0 min 0,000 mm 0 W/m -4,7 C -3,6 C 0,0 km/h (0 Bft) 89 %
21.12.2016 02:00 -3,5 C -3,6 C -3,5 C 92 % 1026,9 hPa 0,0 l/m 0,0 km/h (0 Bft) N 0 0 min 0,000 mm 0 W/m -4,6 C -3,5 C 0,0 km/h (0 Bft) 97 %
21.12.2016 02:10 -3,4 C -3,5 C -3,4 C 92 % 1026,8 hPa 0,0 l/m 0,0 km/h (0 Bft) N 0 0 min 0,000 mm 0 W/m -4,5 C -3,4 C 0,0 km/h (0 Bft) 97 %
21.12.2016 02:20 -3,3 C -3,4 C -3,3 C 92 % 1027,0 hPa 0,0 l/m 0,0 km/h (0 Bft) N 0 0 min 0,000 mm 0 W/m -4,4 C -3,3 C 0,0 km/h (0 Bft) 97 %
21.12.2016 02:30 -3,3 C -3,3 C -3,3 C 92 % 1027,1 hPa 0,0 l/m 0,0 km/h (0 Bft) N 0 0 min 0,000 mm 0 W/m -4,4 C -3,3 C 0,0 km/h (0 Bft) 98 %
21.12.2016 02:40 -3,2 C -3,3 C -3,2 C 92 % 1027,3 hPa 0,0 l/m 0,0 km/h (0 Bft) N 0 0 min 0,000 mm 0 W/m -4,3 C -3,2 C 0,0 km/h (0 Bft) 98 %
21.12.2016 02:50 -3,1 C -3,2 C -3,1 C 92 % 1027,3 hPa 0,0 l/m 0,0 km/h (0 Bft) N 0 0 min 0,000 mm 0 W/m -4,2 C -3,1 C 0,0 km/h (0 Bft) 97 %
21.12.2016 03:00 -2,9 C -3,1 C -2,9 C 92 % 1027,1 hPa 0,0 l/m 0,0 km/h (0 Bft) N 0 0 min 0,000 mm 0 W/m -4,0 C -2,9 C 0,0 km/h (0 Bft) 89 %
21.12.2016 03:10 -2,7 C -2,9 C -2,7 C 92 % 1027,1 hPa 0,0 l/m 0,0 km/h (0 Bft) N 0 0 min 0,000 mm 0 W/m -3,8 C -2,7 C 0,0 km/h (0 Bft) 97 %
21.12.2016 03:20 -2,6 C -2,7 C -2,6 C 92 % 1027,2 hPa 0,0 l/m 0,0 km/h (0 Bft) N 0 0 min 0,000 mm 0 W/m -3,7 C -2,6 C 0,0 km/h (0 Bft) 98 %
21.12.2016 03:30 -2,4 C -2,6 C -2,4 C 92 % 1027,3 hPa 0,0 l/m 0,0 km/h (0 Bft) N 0 0 min 0,000 mm 0 W/m -3,5 C -2,4 C 0,0 km/h (0 Bft) 97 %
21.12.2016 03:40 -2,3 C -2,4 C -2,3 C 92 % 1027,5 hPa 0,0 l/m 0,0 km/h (0 Bft) NO 45 0 min 0,000 mm 0 W/m -3,4 C -2,3 C 3,2 km/h (1 Bft) 97 %
21.12.2016 03:50 -2,3 C -2,3 C -2,2 C 92 % 1027,5 hPa 0,0 l/m 0,0 km/h (0 Bft) N 0 0 min 0,000 mm 0 W/m -3,4 C -2,3 C 0,0 km/h (0 Bft) 98 %
21.12.2016 04:00 -2,3 C -2,3 C -2,3 C 92 % 1027,6 hPa 0,0 l/m 0,0 km/h (0 Bft) N 0 0 min 0,000 mm 0 W/m -3,4 C -2,3 C 0,0 km/h (0 Bft) 97 %
21.12.2016 04:10 -2,3 C -2,3 C -2,3 C 92 % 1027,6 hPa 0,0 l/m 0,0 km/h (0 Bft) N 0 0 min 0,000 mm 0 W/m -3,4 C -2,3 C 0,0 km/h (0 Bft) 89 %
21.12.2016 04:20 -2,2 C -2,3 C -2,2 C 92 % 1027,6 hPa 0,0 l/m 0,0 km/h (0 Bft) N 0 0 min 0,000 mm 0 W/m -3,3 C -2,2 C 0,0 km/h (0 Bft) 97 %
21.12.2016 04:30 -2,2 C -2,2 C -2,2 C 92 % 1027,8 hPa 0,0 l/m 0,0 km/h (0 Bft) O-SO 112 0 min 0,000 mm 0 W/m -3,3 C -2,2 C 3,2 km/h (1 Bft) 98 %
21.12.2016 04:40 -2,1 C -2,2 C -2,1 C 92 % 1027,9 hPa 0,0 l/m 0,0 km/h (0 Bft) N 0 0 min 0,000 mm 0 W/m -3,2 C -2,1 C 0,0 km/h (0 Bft) 97 %
21.12.2016 04:50 -2,1 C -2,1 C -2,1 C 92 % 1028,1 hPa 0,0 l/m 0,0 km/h (0 Bft) S 180 0 min 0,000 mm 0 W/m -3,2 C -2,1 C 4,8 km/h (1 Bft) 98 %
21.12.2016 05:00 -2,1 C -2,1 C -2,1 C 92 % 1028,1 hPa 0,0 l/m 0,0 km/h (0 Bft) SW 225 0 min 0,000 mm 0 W/m -3,2 C -2,1 C 3,2 km/h (1 Bft) 98 %
21.12.2016 05:10 -2,1 C -2,1 C -2,1 C 92 % 1028,3 hPa 0,0 l/m 0,0 km/h (0 Bft) N 0 0 min 0,000 mm 0 W/m -3,2 C -2,1 C 0,0 km/h (0 Bft) 97 %
21.12.2016 05:20 -2,0 C -2,1 C -2,0 C 92 % 1028,2 hPa 0,0 l/m 0,0 km/h (0 Bft) N 0 0 min 0,000 mm 0 W/m -3,1 C -2,0 C 0,0 km/h (0 Bft) 98 %
21.12.2016 05:30 -2,0 C -2,0 C -2,0 C 92 % 1028,3 hPa 0,0 l/m 0,0 km/h (0 Bft) N 0 0 min 0,000 mm 0 W/m -3,1 C -2,0 C 0,0 km/h (0 Bft) 97 %
21.12.2016 05:40 -2,0 C -2,0 C -2,0 C 92 % 1028,2 hPa 0,0 l/m 0,0 km/h (0 Bft) N 0 0 min 0,000 mm 0 W/m -3,1 C -2,0 C 0,0 km/h (0 Bft) 98 %
21.12.2016 05:50 -1,9 C -2,0 C -1,9 C 92 % 1028,4 hPa 0,0 l/m 0,0 km/h (0 Bft) N 0 0 min 0,000 mm 0 W/m -3,0 C -1,9 C 0,0 km/h (0 Bft) 97 %
21.12.2016 06:00 -1,9 C -1,9 C -1,9 C 92 % 1028,3 hPa 0,0 l/m 0,0 km/h (0 Bft) N 0 0 min 0,000 mm 0 W/m -3,0 C -1,9 C 0,0 km/h (0 Bft) 98 %
21.12.2016 06:10 -1,8 C -1,9 C -1,8 C 92 % 1028,5 hPa 0,0 l/m 0,0 km/h (0 Bft) N 0 0 min 0,000 mm 0 W/m -2,9 C -1,8 C 0,0 km/h (0 Bft) 97 %
21.12.2016 06:20 -1,7 C -1,8 C -1,7 C 92 % 1028,5 hPa 0,0 l/m 0,0 km/h (0 Bft) SW 225 0 min 0,000 mm 0 W/m -2,8 C -1,7 C 3,2 km/h (1 Bft) 98 %
21.12.2016 06:30 -1,7 C -1,8 C -1,7 C 92 % 1028,7 hPa 0,0 l/m 0,0 km/h (0 Bft) N 0 0 min 0,000 mm 0 W/m -2,8 C -1,7 C 0,0 km/h (0 Bft) 98 %
21.12.2016 06:40 -1,7 C -1,7 C -1,7 C 92 % 1028,9 hPa 0,0 l/m 0,0 km/h (0 Bft) N 0 0 min 0,000 mm 0 W/m -2,8 C -1,7 C 0,0 km/h (0 Bft) 97 %
21.12.2016 06:50 -1,7 C -1,7 C -1,7 C 92 % 1028,9 hPa 0,0 l/m 0,0 km/h (0 Bft) N 0 0 min 0,000 mm 0 W/m -2,8 C -1,7 C 0,0 km/h (0 Bft) 100 %
21.12.2016 07:00 -1,7 C -1,7 C -1,7 C 92 % 1028,9 hPa 0,0 l/m 0,0 km/h (0 Bft) N 0 0 min 0,000 mm 0 W/m -2,8 C -1,7 C 0,0 km/h (0 Bft) 100 %
21.12.2016 07:10 -1,7 C -1,7 C -1,7 C 92 % 1029,0 hPa 0,0 l/m 0,0 km/h (0 Bft) N 0 0 min 0,000 mm 0 W/m -2,8 C -1,7 C 0,0 km/h (0 Bft) 100 %
21.12.2016 07:20 -1,7 C -1,7 C -1,7 C 92 % 1029,1 hPa 0,0 l/m 0,0 km/h (0 Bft) N 0 0 min 0,000 mm 0 W/m -2,8 C -1,7 C 0,0 km/h (0 Bft) 100 %
21.12.2016 07:30 -1,7 C -1,7 C -1,7 C 92 % 1029,2 hPa 0,0 l/m 0,0 km/h (0 Bft) SW 225 0 min 0,000 mm 0 W/m -2,8 C -1,7 C 3,2 km/h (1 Bft) 100 %
21.12.2016 07:40 -1,7 C -1,7 C -1,7 C 92 % 1029,3 hPa 0,0 l/m 0,0 km/h (0 Bft) N 0 0 min 0,000 mm 0 W/m -2,8 C -1,7 C 0,0 km/h (0 Bft) 100 %
21.12.2016 07:50 -1,7 C -1,7 C -1,6 C 92 % 1029,3 hPa 0,0 l/m 0,0 km/h (0 Bft) SW 225 0 min 0,000 mm 0 W/m -2,8 C -1,7 C 3,2 km/h (1 Bft) 100 %
21.12.2016 08:00 -1,7 C -1,7 C -1,6 C 92 % 1029,3 hPa 0,0 l/m 0,0 km/h (0 Bft) N 0 0 min 0,000 mm 0 W/m -2,8 C -1,7 C 0,0 km/h (0 Bft) 90 %
21.12.2016 08:10 -1,7 C -1,7 C -1,7 C 92 % 1029,5 hPa 0,0 l/m 0,0 km/h (0 Bft) N 0 0 min 0,000 mm 0 W/m -2,8 C -1,7 C 0,0 km/h (0 Bft) 100 %
21.12.2016 08:20 -1,7 C -1,7 C -1,7 C 92 % 1029,6 hPa 0,0 l/m 0,0 km/h (0 Bft) N 0 0 min 0,000 mm 0 W/m -2,8 C -1,7 C 0,0 km/h (0 Bft) 100 %
21.12.2016 08:30 -1,7 C -1,7 C -1,7 C 92 % 1029,6 hPa 0,0 l/m 0,0 km/h (0 Bft) SW 225 0 min 0,000 mm 0 W/m -2,8 C -1,7 C 3,2 km/h (1 Bft) 100 %
21.12.2016 08:40 -1,7 C -1,7 C -1,7 C 92 % 1029,8 hPa 0,0 l/m 0,0 km/h (0 Bft) N 0 0 min 0,000 mm 5 W/m -2,8 C -1,7 C 0,0 km/h (0 Bft) 100 %
21.12.2016 08:50 -1,7 C -1,7 C -1,7 C 92 % 1030,0 hPa 0,0 l/m 0,0 km/h (0 Bft) N 0 0 min 0,000 mm 5 W/m -2,8 C -1,7 C 0,0 km/h (0 Bft) 100 %
21.12.2016 09:00 -1,7 C -1,7 C -1,7 C 92 % 1030,1 hPa 0,0 l/m 0,0 km/h (0 Bft) SW 225 0 min 0,000 mm 9 W/m -2,8 C -1,7 C 3,2 km/h (1 Bft) 100 %
21.12.2016 09:10 -1,6 C -1,7 C -1,6 C 92 % 1030,2 hPa 0,0 l/m 0,0 km/h (0 Bft) N 0 0 min 0,000 mm 11 W/m -2,7 C -1,6 C 0,0 km/h (0 Bft) 100 %
21.12.2016 09:20 -1,6 C -1,6 C -1,6 C 92 % 1030,3 hPa 0,0 l/m 0,0 km/h (0 Bft) N 0 0 min 0,000 mm 12 W/m -2,7 C -1,6 C 0,0 km/h (0 Bft) 88 %
21.12.2016 09:30 -1,6 C -1,7 C -1,6 C 92 % 1030,4 hPa 0,0 l/m 0,0 km/h (0 Bft) SW 225 0 min 0,000 mm 14 W/m -2,7 C -1,6 C 1,6 km/h (1 Bft) 100 %
21.12.2016 09:40 -1,6 C -1,6 C -1,6 C 92 % 1030,5 hPa 0,0 l/m 0,0 km/h (0 Bft) N 0 0 min 0,000 mm 16 W/m -2,7 C -1,6 C 0,0 km/h (0 Bft) 100 %
21.12.2016 09:50 -1,6 C -1,6 C -1,6 C 92 % 1030,7 hPa 0,0 l/m 0,0 km/h (0 Bft) SW 225 0 min 0,000 mm 18 W/m -2,7 C -1,6 C 3,2 km/h (1 Bft) 100 %
21.12.2016 10:00 -1,6 C -1,6 C -1,5 C 92 % 1030,7 hPa 0,0 l/m 0,0 km/h (0 Bft) SW 225 0 min 0,000 mm 21 W/m -2,7 C -1,6 C 3,2 km/h (1 Bft) 100 %
21.12.2016 10:10 -1,5 C -1,6 C -1,5 C 92 % 1030,9 hPa 0,0 l/m 1,6 km/h (1 Bft) SW 225 0 min 0,000 mm 23 W/m -2,6 C -1,5 C 4,8 km/h (1 Bft) 100 %
21.12.2016 10:20 -1,5 C -1,6 C -1,5 C 92 % 1031,1 hPa 0,0 l/m 1,6 km/h (1 Bft) W-SW 247 0 min 0,000 mm 26 W/m -2,6 C -1,5 C 6,4 km/h (2 Bft) 100 %
21.12.2016 10:30 -1,6 C -1,6 C -1,5 C 92 % 1031,0 hPa 0,0 l/m 0,0 km/h (0 Bft) W-SW 247 0 min 0,000 mm 28 W/m -2,7 C -1,6 C 1,6 km/h (1 Bft) 100 %
21.12.2016 10:40 -1,5 C -1,6 C -1,5 C 92 % 1030,9 hPa 0,0 l/m 0,0 km/h (0 Bft) W-SW 247 0 min 0,000 mm 33 W/m -2,6 C -1,5 C 4,8 km/h (1 Bft) 91 %
21.12.2016 10:50 -1,5 C -1,5 C -1,4 C 92 % 1030,8 hPa 0,0 l/m 0,0 km/h (0 Bft) N 0 0 min 0,000 mm 33 W/m -2,6 C -1,5 C 0,0 km/h (0 Bft) 100 %
21.12.2016 11:00 -1,5 C -1,5 C -1,5 C 92 % 1030,8 hPa 0,0 l/m 1,6 km/h (1 Bft) SW 225 0 min 0,000 mm 32 W/m -2,6 C -1,5 C 6,4 km/h (2 Bft) 100 %
21.12.2016 11:10 -1,4 C -1,5 C -1,4 C 92 % 1030,7 hPa 0,0 l/m 0,0 km/h (0 Bft) SW 225 0 min 0,000 mm 39 W/m -2,5 C -1,4 C 4,8 km/h (1 Bft) 100 %
21.12.2016 11:20 -1,5 C -1,5 C -1,4 C 92 % 1030,7 hPa 0,0 l/m 1,6 km/h (1 Bft) S-SO 157 0 min 0,000 mm 42 W/m -2,6 C -1,5 C 8,0 km/h (2 Bft) 100 %
21.12.2016 11:30 -1,6 C -1,6 C -1,6 C 92 % 1030,7 hPa 0,0 l/m 0,0 km/h (0 Bft) N 0 0 min 0,000 mm 40 W/m -2,7 C -1,6 C 0,0 km/h (0 Bft) 100 %
21.12.2016 11:40 -1,6 C -1,6 C -1,6 C 92 % 1030,6 hPa 0,0 l/m 0,0 km/h (0 Bft) N 0 0 min 0,000 mm 40 W/m -2,7 C -1,6 C 0,0 km/h (0 Bft) 100 %
21.12.2016 11:50 -1,6 C -1,6 C -1,6 C 92 % 1030,6 hPa 0,0 l/m 0,0 km/h (0 Bft) SO 135 0 min 0,000 mm 42 W/m -2,7 C -1,6 C 4,8 km/h (1 Bft) 100 %
21.12.2016 12:00 -1,5 C -1,6 C -1,5 C 92 % 1030,6 hPa 0,0 l/m 0,0 km/h (0 Bft) S-SO 157 0 min 0,025 mm 40 W/m -2,6 C -1,5 C 3,2 km/h (1 Bft) 88 %
21.12.2016 12:10 -1,5 C -1,5 C -1,4 C 92 % 1030,5 hPa 0,0 l/m 0,0 km/h (0 Bft) N 0 0 min 0,000 mm 42 W/m -2,6 C -1,5 C 0,0 km/h (0 Bft) 100 %
21.12.2016 12:20 -1,5 C -1,5 C -1,5 C 92 % 1030,6 hPa 0,0 l/m 0,0 km/h (0 Bft) N 0 0 min 0,000 mm 40 W/m -2,6 C -1,5 C 0,0 km/h (0 Bft) 99 %
21.12.2016 12:30 -1,5 C -1,5 C -1,5 C 92 % 1030,6 hPa 0,0 l/m 1,6 km/h (1 Bft) S-SW 202 0 min 0,000 mm 42 W/m -2,6 C -1,5 C 6,4 km/h (2 Bft) 100 %
21.12.2016 12:40 -1,6 C -1,6 C -1,5 C 92 % 1030,7 hPa 0,0 l/m 0,0 km/h (0 Bft) S 180 0 min 0,000 mm 42 W/m -2,7 C -1,6 C 4,8 km/h (1 Bft) 100 %
21.12.2016 12:50 -1,4 C -1,6 C -1,4 C 92 % 1030,7 hPa 0,0 l/m 1,6 km/h (1 Bft) S 180 0 min 0,000 mm 35 W/m -2,5 C -1,4 C 4,8 km/h (1 Bft) 99 %
21.12.2016 13:00 -1,4 C -1,4 C -1,4 C 92 % 1030,7 hPa 0,0 l/m 0,0 km/h (0 Bft) S 180 0 min 0,025 mm 39 W/m -2,5 C -1,4 C 4,8 km/h (1 Bft) 100 %
21.12.2016 13:10 -1,6 C -1,6 C -1,4 C 92 % 1030,7 hPa 0,0 l/m 0,0 km/h (0 Bft) S-SO 157 0 min 0,000 mm 39 W/m -2,7 C -1,6 C 4,8 km/h (1 Bft) 100 %
21.12.2016 13:20 -1,6 C -1,6 C -1,5 C 92 % 1030,7 hPa 0,0 l/m 0,0 km/h (0 Bft) S-SO 157 0 min 0,000 mm 37 W/m -2,7 C -1,6 C 4,8 km/h (1 Bft) 100 %
21.12.2016 13:30 -1,6 C -1,6 C -1,6 C 92 % 1030,6 hPa 0,0 l/m 0,0 km/h (0 Bft) N 0 0 min 0,000 mm 37 W/m -2,7 C -1,6 C 0,0 km/h (0 Bft) 100 %
21.12.2016 13:40 -1,5 C -1,6 C -1,5 C 92 % 1030,5 hPa 0,0 l/m 0,0 km/h (0 Bft) S-SO 157 0 min 0,000 mm 35 W/m -2,6 C -1,5 C 1,6 km/h (1 Bft) 100 %
21.12.2016 13:50 -1,4 C -1,5 C -1,4 C 92 % 1030,7 hPa 0,0 l/m 0,0 km/h (0 Bft) S 180 0 min 0,000 mm 33 W/m -2,5 C -1,4 C 4,8 km/h (1 Bft) 100 %
21.12.2016 14:00 -1,4 C -1,4 C -1,4 C 92 % 1030,8 hPa 0,0 l/m 1,6 km/h (1 Bft) W 270 0 min 0,000 mm 30 W/m -2,5 C -1,4 C 6,4 km/h (2 Bft) 100 %
21.12.2016 14:10 -1,4 C -1,4 C -1,4 C 92 % 1030,8 hPa 0,0 l/m 0,0 km/h (0 Bft) N 0 0 min 0,000 mm 30 W/m -2,5 C -1,4 C 0,0 km/h (0 Bft) 100 %
21.12.2016 14:20 -1,4 C -1,4 C -1,4 C 92 % 1030,7 hPa 0,0 l/m 0,0 km/h (0 Bft) W 270 0 min 0,000 mm 33 W/m -2,5 C -1,4 C 1,6 km/h (1 Bft) 100 %
21.12.2016 14:30 -1,4 C -1,4 C -1,4 C 92 % 1030,8 hPa 0,0 l/m 0,0 km/h (0 Bft) N 0 0 min 0,000 mm 35 W/m -2,5 C -1,4 C 0,0 km/h (0 Bft) 100 %
21.12.2016 14:40 -1,6 C -1,6 C -1,4 C 92 % 1030,8 hPa 0,0 l/m 0,0 km/h (0 Bft) N 0 0 min 0,000 mm 30 W/m -2,7 C -1,6 C 0,0 km/h (0 Bft) 100 %
21.12.2016 14:50 -1,6 C -1,6 C -1,6 C 92 % 1030,9 hPa 0,0 l/m 0,0 km/h (0 Bft) N 0 0 min 0,000 mm 25 W/m -2,7 C -1,6 C 0,0 km/h (0 Bft) 100 %
21.12.2016 15:00 -1,5 C -1,6 C -1,4 C 92 % 1030,9 hPa 0,0 l/m 0,0 km/h (0 Bft) W-SW 247 0 min 0,000 mm 21 W/m -2,6 C -1,5 C 4,8 km/h (1 Bft) 100 %
21.12.2016 15:10 -1,5 C -1,6 C -1,5 C 92 % 1030,7 hPa 0,0 l/m 0,0 km/h (0 Bft) N 0 0 min 0,000 mm 19 W/m -2,6 C -1,5 C 0,0 km/h (0 Bft) 100 %
21.12.2016 15:20 -1,6 C -1,6 C -1,5 C 92 % 1030,7 hPa 0,0 l/m 1,6 km/h (1 Bft) SW 225 0 min 0,000 mm 21 W/m -2,7 C -1,6 C 4,8 km/h (1 Bft) 100 %
21.12.2016 15:30 -1,6 C -1,6 C -1,5 C 92 % 1030,9 hPa 0,0 l/m 1,6 km/h (1 Bft) S-SO 157 0 min 0,000 mm 18 W/m -2,7 C -1,6 C 4,8 km/h (1 Bft) 100 %
21.12.2016 15:40 -1,7 C -1,7 C -1,6 C 92 % 1031,0 hPa 0,0 l/m 0,0 km/h (0 Bft) SO 135 0 min 0,000 mm 12 W/m -2,8 C -1,7 C 4,8 km/h (1 Bft) 100 %
21.12.2016 15:50 -1,8 C -1,8 C -1,7 C 92 % 1031,0 hPa 0,0 l/m 0,0 km/h (0 Bft) SO 135 0 min 0,000 mm 9 W/m -2,9 C -1,8 C 4,8 km/h (1 Bft) 100 %
21.12.2016 16:00 -1,8 C -1,8 C -1,8 C 92 % 1031,1 hPa 0,0 l/m 0,0 km/h (0 Bft) N 0 0 min 0,000 mm 7 W/m -2,9 C -1,8 C 0,0 km/h (0 Bft) 100 %
21.12.2016 16:20 -1,8 C -1,9 C -1,8 C 92 % 1031,2 hPa 0,0 l/m 0,0 km/h (0 Bft) SO 142 0 min 0,001 mm 0 W/m -2,9 C -1,8 C 0,0 km/h (0 Bft) 99 %
21.12.2016 16:30 -1,8 C -1,8 C -1,8 C 92 % 1031,1 hPa 0,0 l/m 0,0 km/h (0 Bft) SO 142 0 min 0,000 mm 0 W/m -2,9 C -1,8 C 0,0 km/h (0 Bft) 100 %
21.12.2016 16:40 -1,8 C -1,8 C -1,8 C 92 % 1031,1 hPa 0,0 l/m 0,0 km/h (0 Bft) SO 142 0 min 0,000 mm 0 W/m -2,9 C -1,8 C 0,0 km/h (0 Bft) 100 %
21.12.2016 16:50 -1,9 C -1,9 C -1,8 C 92 % 1031,2 hPa 0,0 l/m 0,0 km/h (0 Bft) SO 142 0 min 0,000 mm 0 W/m -3,0 C -1,9 C 0,0 km/h (0 Bft) 100 %
21.12.2016 17:00 -1,8 C -1,9 C -1,8 C 92 % 1031,3 hPa 0,0 l/m 0,0 km/h (0 Bft) SO 142 0 min 0,000 mm 0 W/m -2,9 C -1,8 C 0,0 km/h (0 Bft) 100 %
21.12.2016 17:10 -1,8 C -1,8 C -1,8 C 92 % 1031,3 hPa 0,0 l/m 0,0 km/h (0 Bft) SO 142 0 min 0,000 mm 0 W/m -2,9 C -1,8 C 0,0 km/h (0 Bft) 90 %
21.12.2016 17:20 -1,7 C -1,8 C -1,7 C 92 % 1031,3 hPa 0,0 l/m 0,0 km/h (0 Bft) SO 142 0 min 0,000 mm 0 W/m -2,8 C -1,7 C 0,0 km/h (0 Bft) 98 %
21.12.2016 17:30 -1,7 C -1,7 C -1,7 C 92 % 1031,3 hPa 0,0 l/m 0,0 km/h (0 Bft) SO 142 0 min 0,000 mm 0 W/m -2,8 C -1,7 C 0,0 km/h (0 Bft) 99 %
21.12.2016 17:40 -1,7 C -1,7 C -1,7 C 92 % 1031,4 hPa 0,0 l/m 0,0 km/h (0 Bft) SO 142 0 min 0,000 mm 0 W/m -2,8 C -1,7 C 1,6 km/h (1 Bft) 99 %
21.12.2016 17:50 -1,7 C -1,7 C -1,7 C 92 % 1031,5 hPa 0,0 l/m 0,0 km/h (0 Bft) SO 142 0 min 0,000 mm 0 W/m -2,8 C -1,7 C 0,0 km/h (0 Bft) 99 %
21.12.2016 18:00 -1,7 C -1,7 C -1,7 C 92 % 1031,5 hPa 0,0 l/m 0,0 km/h (0 Bft) SO 142 0 min 0,000 mm 0 W/m -2,8 C -1,7 C 0,0 km/h (0 Bft) 100 %
21.12.2016 18:10 -1,8 C -1,8 C -1,7 C 92 % 1031,6 hPa 0,0 l/m 0,0 km/h (0 Bft) SO 142 0 min 0,000 mm 0 W/m -2,9 C -1,8 C 0,0 km/h (0 Bft) 99 %
21.12.2016 18:20 -1,8 C -1,8 C -1,7 C 92 % 1031,6 hPa 0,0 l/m 0,0 km/h (0 Bft) SO 142 0 min 0,000 mm 0 W/m -2,9 C -1,8 C 0,0 km/h (0 Bft) 100 %
21.12.2016 18:30 -1,8 C -1,8 C -1,8 C 92 % 1031,6 hPa 0,0 l/m 0,0 km/h (0 Bft) SO 142 0 min 0,000 mm 0 W/m -2,9 C -1,8 C 0,0 km/h (0 Bft) 100 %
21.12.2016 18:40 -1,7 C -1,8 C -1,7 C 92 % 1031,7 hPa 0,0 l/m 0,0 km/h (0 Bft) SO 142 0 min 0,000 mm 0 W/m -2,8 C -1,7 C 0,0 km/h (0 Bft) 99 %
21.12.2016 18:50 -1,7 C -1,7 C -1,7 C 92 % 1031,6 hPa 0,0 l/m 0,0 km/h (0 Bft) SO 142 0 min 0,000 mm 0 W/m -2,8 C -1,7 C 0,0 km/h (0 Bft) 100 %
21.12.2016 19:00 -1,7 C -1,7 C -1,7 C 92 % 1031,7 hPa 0,0 l/m 0,0 km/h (0 Bft) SO 142 0 min 0,000 mm 0 W/m -2,8 C -1,7 C 0,0 km/h (0 Bft) 99 %
21.12.2016 19:10 -1,7 C -1,8 C -1,7 C 92 % 1031,7 hPa 0,0 l/m 0,0 km/h (0 Bft) SO 142 0 min 0,000 mm 0 W/m -2,8 C -1,7 C 0,0 km/h (0 Bft) 100 %
21.12.2016 19:20 -1,8 C -1,8 C -1,7 C 92 % 1031,7 hPa 0,0 l/m 0,0 km/h (0 Bft) SO 140 0 min 0,000 mm 0 W/m -2,9 C -1,8 C 0,0 km/h (0 Bft) 100 %
21.12.2016 19:30 -1,8 C -1,8 C -1,8 C 92 % 1031,8 hPa 0,0 l/m 0,0 km/h (0 Bft) SO 140 0 min 0,000 mm 0 W/m -2,9 C -1,8 C 0,0 km/h (0 Bft) 100 %
21.12.2016 19:40 -1,8 C -1,8 C -1,8 C 92 % 1031,9 hPa 0,0 l/m 0,0 km/h (0 Bft) SO 140 0 min 0,000 mm 0 W/m -2,9 C -1,8 C 0,0 km/h (0 Bft) 100 %
21.12.2016 19:50 -1,7 C -1,8 C -1,7 C 92 % 1031,9 hPa 0,0 l/m 0,0 km/h (0 Bft) SO 140 0 min 0,000 mm 0 W/m -2,8 C -1,7 C 0,0 km/h (0 Bft) 100 %
21.12.2016 20:00 -1,7 C -1,7 C -1,7 C 92 % 1032,0 hPa 0,0 l/m 0,0 km/h (0 Bft) SO 140 0 min 0,000 mm 0 W/m -2,8 C -1,7 C 0,0 km/h (0 Bft) 99 %
21.12.2016 20:10 -1,7 C -1,7 C -1,7 C 92 % 1032,1 hPa 0,0 l/m 0,0 km/h (0 Bft) SO 140 0 min 0,000 mm 0 W/m -2,8 C -1,7 C 0,0 km/h (0 Bft) 98 %
21.12.2016 20:20 -1,7 C -1,7 C -1,7 C 92 % 1032,1 hPa 0,0 l/m 0,0 km/h (0 Bft) SO 140 0 min 0,000 mm 0 W/m -2,8 C -1,7 C 0,0 km/h (0 Bft) 90 %
21.12.2016 20:30 -1,7 C -1,7 C -1,7 C 92 % 1032,0 hPa 0,0 l/m 0,2 km/h (0 Bft) SO 138 0 min 0,000 mm 0 W/m -2,8 C -1,7 C 4,8 km/h (1 Bft) 100 %
21.12.2016 20:40 -1,7 C -1,7 C -1,7 C 92 % 1031,9 hPa 0,0 l/m 0,0 km/h (0 Bft) SO 138 0 min 0,000 mm 0 W/m -2,8 C -1,7 C 0,0 km/h (0 Bft) 100 %
21.12.2016 20:50 -1,7 C -1,7 C -1,7 C 92 % 1031,8 hPa 0,0 l/m 0,0 km/h (0 Bft) SO 138 0 min 0,000 mm 0 W/m -2,8 C -1,7 C 1,6 km/h (1 Bft) 90 %
21.12.2016 21:00 -1,7 C -1,7 C -1,7 C 92 % 1031,9 hPa 0,0 l/m 0,0 km/h (0 Bft) SO 138 0 min 0,000 mm 0 W/m -2,8 C -1,7 C 0,0 km/h (0 Bft) 99 %
21.12.2016 21:10 -1,7 C -1,7 C -1,6 C 92 % 1032,0 hPa 0,0 l/m 0,0 km/h (0 Bft) N 0 0 min 0,000 mm 0 W/m -2,8 C -1,7 C 0,0 km/h (0 Bft) 100 %
21.12.2016 21:20 -1,6 C -1,7 C -1,6 C 92 % 1031,8 hPa 0,0 l/m 0,0 km/h (0 Bft) N 0 0 min 0,000 mm 0 W/m -2,7 C -1,6 C 0,0 km/h (0 Bft) 90 %
21.12.2016 21:30 -1,6 C -1,6 C -1,6 C 92 % 1031,8 hPa 0,0 l/m 0,0 km/h (0 Bft) N 0 0 min 0,000 mm 0 W/m -2,7 C -1,6 C 0,0 km/h (0 Bft) 100 %
21.12.2016 21:40 -1,6 C -1,6 C -1,5 C 92 % 1031,8 hPa 0,0 l/m 0,0 km/h (0 Bft) N 0 0 min 0,000 mm 0 W/m -2,7 C -1,6 C 0,0 km/h (0 Bft) 100 %
21.12.2016 21:50 -1,6 C -1,6 C -1,6 C 92 % 1031,8 hPa 0,0 l/m 0,0 km/h (0 Bft) N 0 0 min 0,000 mm 0 W/m -2,7 C -1,6 C 0,0 km/h (0 Bft) 100 %
21.12.2016 22:00 -1,6 C -1,6 C -1,6 C 92 % 1031,8 hPa 0,0 l/m 0,0 km/h (0 Bft) N 0 0 min 0,000 mm 0 W/m -2,7 C -1,6 C 0,0 km/h (0 Bft) 100 %
21.12.2016 22:10 -1,5 C -1,6 C -1,5 C 92 % 1031,9 hPa 0,0 l/m 0,0 km/h (0 Bft) N 0 0 min 0,000 mm 0 W/m -2,6 C -1,5 C 0,0 km/h (0 Bft) 100 %
21.12.2016 22:20 -1,5 C -1,5 C -1,5 C 92 % 1031,8 hPa 0,0 l/m 0,0 km/h (0 Bft) N 0 0 min 0,000 mm 0 W/m -2,6 C -1,5 C 0,0 km/h (0 Bft) 100 %
21.12.2016 22:30 -1,4 C -1,5 C -1,4 C 92 % 1031,7 hPa 0,0 l/m 0,0 km/h (0 Bft) N 0 0 min 0,000 mm 0 W/m -2,5 C -1,4 C 0,0 km/h (0 Bft) 100 %
21.12.2016 22:40 -1,4 C -1,4 C -1,4 C 92 % 1031,7 hPa 0,0 l/m 0,0 km/h (0 Bft) N 0 0 min 0,000 mm 0 W/m -2,5 C -1,4 C 0,0 km/h (0 Bft) 91 %
21.12.2016 22:50 -1,4 C -1,5 C -1,4 C 92 % 1031,7 hPa 0,0 l/m 0,0 km/h (0 Bft) N 0 0 min 0,000 mm 0 W/m -2,5 C -1,4 C 0,0 km/h (0 Bft) 100 %
21.12.2016 23:00 -1,4 C -1,4 C -1,4 C 92 % 1031,7 hPa 0,0 l/m 0,0 km/h (0 Bft) N 0 0 min 0,000 mm 0 W/m -2,5 C -1,4 C 0,0 km/h (0 Bft) 100 %
21.12.2016 23:10 -1,4 C -1,4 C -1,4 C 92 % 1031,6 hPa 0,0 l/m 0,0 km/h (0 Bft) N 0 0 min 0,000 mm 0 W/m -2,5 C -1,4 C 0,0 km/h (0 Bft) 100 %
21.12.2016 23:20 -1,4 C -1,4 C -1,4 C 92 % 1031,7 hPa 0,0 l/m 0,0 km/h (0 Bft) N 0 0 min 0,000 mm 0 W/m -2,5 C -1,4 C 0,0 km/h (0 Bft) 100 %
21.12.2016 23:30 -1,4 C -1,4 C -1,4 C 92 % 1031,6 hPa 0,0 l/m 0,0 km/h (0 Bft) N 0 0 min 0,000 mm 0 W/m -2,5 C -1,4 C 0,0 km/h (0 Bft) 100 %
21.12.2016 23:40 -1,6 C -1,6 C -1,4 C 92 % 1031,6 hPa 0,0 l/m 0,0 km/h (0 Bft) N 0 0 min 0,000 mm 0 W/m -2,7 C -1,6 C 0,0 km/h (0 Bft) 98 %
21.12.2016 23:50 -1,6 C -1,6 C -1,6 C 92 % 1031,5 hPa 0,0 l/m 0,0 km/h (0 Bft) N 0 0 min 0,000 mm 0 W/m -2,7 C -1,6 C 0,0 km/h (0 Bft) 100 %
_ Min-Zeit 01:40 01:40 01:40 00:00 00:10 - 00:00 - - - - - 01:40 01:40 00:00 12:00
Minimum _ -3,7 C -3,7 C -3,6 C 92 % 1025,9 hPa - 0,0 km/h (0 Bft) - - - - - -4,8 C -3,7 C 0,0 km/h (0 Bft) 88 %
_ Max-Zeit 10:50 13:00 10:50 00:00 20:10 00:00 01:30 - - 00:00 12:00 11:20 11:10 11:10 11:20 06:50
Maximum _ -1,4 C -1,4 C -1,4 C 92 % 1032,1 hPa 0,0 l/m 1,6 km/h
NO (1 Bft)
- - 0 min 0,025 mm 42 W/m -2,5 C -1,4 C 8,0 km/h
SO (2 Bft)
100 %
Durchschnitt _ -1,9 C -1,9 C -1,9 C 92 % 1029,9 hPa #0,0 l/m 0,1 km/h (0 Bft) SW - #0 min. #0,051 mm 28 W/m -3,0 C -1,9 C 1,2 km/h (1 Bft) 98 %
PRIVATE WETTERSTATION BILLIGHEIM-ALLFELD - www.neckar-odenwald-wetter.de - Holger Sonntag